KRNT - Renton, Washington, USA
Distance from station: W 21mi, 33km
Updated: Thu, 09-Jul-2020 6:53pm PDT

 Wind from SSW
Wind: SSW 8 mph , 13 km/h
Temperature: 70°F , 21°C
Dew Point: 54°F , 12°C
Humidity: 57%
Barometer: 30.00 inHg , 1015.9 hPa
Visibility: 10 miles , 16 km
Cloud details: 6500 ft
2020/07/10 01:53 KRNT 100153Z 21007KT 10SM FEW065 21/12 A3000 RMK AO2 SLP165 T02110122
KBFI - Seattle/Boeing, Washington, USA
Distance from station: W 25mi, 41km
Updated: Thu, 09-Jul-2020 6:53pm PDT

 Wind from WNW
Wind: WNW 7 mph , 11 km/h
Temperature: 66°F , 19°C
Dew Point: 54°F , 12°C
Humidity: 64%
Barometer: 30.01 inHg , 1016.3 hPa
Visibility: 10 miles , 16 km
Cloud details: 3500 ft
8000 ft
2020/07/10 01:53 KBFI 100153Z 29006KT 10SM SCT035 SCT080 19/12 A3001 RMK AO2 SLP162 T01940117
 
KSEA - Seattle/Metro, Washington, USA
Distance from station: W 25mi, 41km
Updated: Thu, 09-Jul-2020 6:53pm PDT

 Wind from SW
Wind: SW 8 mph , 13 km/h
Temperature: 70°F , 21°C
Dew Point: 55°F , 13°C
Humidity: 60%
Barometer: 30.02 inHg , 1016.6 hPa
Visibility: 10 miles , 16 km
Cloud details: 3000 ft
6000 ft
2020/07/10 01:53 KSEA 100153Z 23007KT 10SM FEW030 SCT060 21/13 A3002 RMK AO2 SLP169 T02060128
KSMP - Stampede Pass, Washington, USA
Distance from station: SE 26mi, 41km
Updated: Thu, 09-Jul-2020 6:56pm PDT

 Wind from varies
Wind: varies 3 mph , 6 km/h
Temperature: 55°F , 13°C
Dew Point: 48°F , 9°C
Humidity: 77%
Barometer: 30.07 inHg , 1018.3 hPa
Visibility: 10 miles , 16 km
Cloud details: 2400 ft
3700 ft
5500 ft
2020/07/10 01:56 KSMP 100156Z AUTO VRB03KT 10SM FEW024 BKN037 OVC055 13/09 A3007 RMK AO2 SLP175 T01280094
 
KPLU - Puyallup/Thun, Washington, USA
Distance from station: SW 36mi, 59km
Updated: Thu, 09-Jul-2020 6:55pm PDT

 Wind from calm
Wind: Calm
Temperature: 68°F , 20°C
Dew Point: 59°F , 15°C
Humidity: 73%
Barometer: 30.03 inHg , 1016.9 hPa
Visibility: 10 miles , 16 km
Cloud details: 2900 ft
9000 ft
2020/07/10 01:55 KPLU 100155Z AUTO 00000KT 10SM FEW029 OVC090 20/15 A3003 RMK AO2
KPAE - Everett, Washington, USA
Distance from station: NW 37mi, 60km
Updated: Thu, 09-Jul-2020 6:53pm PDT

 Wind from N
Wind: N 8 mph , 13 km/h
Temperature: 61°F , 16°C
Dew Point: 52°F , 11°C
Humidity: 72%
Barometer: 30.04 inHg , 1017.3 hPa
Visibility: 10 miles , 16 km
Cloud details: 3900 ft
2020/07/10 01:53 KPAE 100153Z 35007KT 10SM FEW039 16/11 A3004 RMK AO2 SLP174 T01560111
 
KTIW - Tacoma, Washington, USA
Distance from station: WSW 41mi, 66km
Updated: Thu, 09-Jul-2020 6:53pm PDT

 Wind from WSW
Wind: WSW 10 mph , 17 km/h
Temperature: 68°F , 20°C
Dew Point: 52°F , 11°C
Humidity: 56%
Barometer: 30.01 inHg , 1016.3 hPa
Visibility: 10 miles , 16 km
2020/07/10 01:53 KTIW 100153Z 24009KT 210V270 10SM CLR 20/11 A3001 RMK AO2 SLP161 T02000111
KTCM - Tacoma/Mc Chord, Washington, USA
Distance from station: SW 42mi, 67km
Updated: Thu, 09-Jul-2020 6:58pm PDT

 Wind from WSW
Wind: WSW 8 mph , 13 km/h
Temperature: 70°F , 21°C
Dew Point: 55°F , 13°C
Humidity: 60%
Barometer: 30.02 inHg , 1016.6 hPa
Visibility: 10 miles , 16 km
2020/07/10 01:58 KTCM 100158Z AUTO 25007KT 10SM CLR 21/13 A3002 RMK AO2 SLP169 T02100129 $
 
KPWT - Bremerton Ntnl, Washington, USA
Distance from station: W 45mi, 73km
Updated: Thu, 09-Jul-2020 6:56pm PDT

 Wind from NNE
Wind: NNE 8 mph , 13 km/h
Temperature: 64°F , 18°C
Dew Point: 57°F , 14°C
Humidity: 78%
Barometer: 30.02 inHg , 1016.6 hPa
Visibility: 10 miles , 16 km
Cloud details: 4700 ft
2020/07/10 01:56 KPWT 100156Z AUTO 03007KT 10SM BKN047 18/14 A3002 RMK AO2 SLP170 T01830139
KGRF - Fort Lewis/Gray, Washington, USA
Distance from station: SW 48mi, 77km
Updated: Thu, 09-Jul-2020 5:58pm PDT

 Wind from WSW
Wind: WSW 5 mph , 7 km/h
Temperature: 70°F , 21°C
Dew Point: 66°F , 19°C
Humidity: 88%
Barometer: 30.01 inHg , 1016.3 hPa
Visibility: 10 miles , 16 km
2020/07/10 00:58 KGRF 100058Z AUTO 24004KT 10SM CLR 21/19 A3001 RMK AO2 SLPNO T02050188 TSNO $
 
KAWO - Arlington Muni, Washington, USA
Distance from station: NNW 50mi, 80km
Updated: Thu, 09-Jul-2020 6:56pm PDT

 Wind from NW
Wind: NW 5 mph , 7 km/h
Temperature: 57°F , 14°C
Dew Point: 55°F , 13°C
Humidity: 94%
Barometer: 30.05 inHg , 1017.6 hPa
Visibility: 10 miles , 16 km
Cloud details: 1800 ft
2020/07/10 01:56 KAWO 100156Z AUTO 32004KT 10SM OVC018 14/13 A3005 RMK AO2 SLP178 T01440128